createdAt,value
2023-03-10T00:01:21.176Z,8.10
2023-03-10T00:03:51.103Z,8.10
2023-03-10T00:06:23.480Z,8.10
2023-03-10T00:08:51.026Z,8.10
2023-03-10T00:11:21.215Z,8.10
2023-03-10T00:13:49.080Z,8.10
2023-03-10T00:16:26.122Z,8.10
2023-03-10T00:18:58.841Z,8.10
2023-03-10T00:21:30.281Z,8.10
2023-03-10T00:23:58.322Z,8.10
2023-03-10T00:26:29.177Z,8.10
2023-03-10T00:28:59.180Z,8.10
2023-03-10T00:31:28.156Z,8.00
2023-03-10T00:33:56.812Z,8.10
2023-03-10T00:36:26.623Z,8.10
2023-03-10T00:38:55.497Z,8.10
2023-03-10T00:41:25.204Z,8.10
2023-03-10T00:43:52.702Z,8.10
2023-03-10T00:46:20.540Z,8.00
2023-03-10T00:48:48.009Z,8.00
2023-03-10T00:51:15.863Z,8.00
2023-03-10T00:53:43.416Z,8.00
2023-03-10T00:56:19.719Z,8.00
2023-03-10T00:58:50.193Z,7.90
2023-03-10T01:01:24.176Z,7.90
2023-03-10T01:03:55.690Z,7.90
2023-03-10T01:06:23.477Z,7.90
2023-03-10T01:08:50.877Z,7.90
2023-03-10T01:11:19.802Z,7.90
2023-03-10T01:13:50.142Z,7.90
2023-03-10T01:16:17.412Z,7.90
2023-03-10T01:18:45.119Z,8.00
2023-03-10T01:21:27.716Z,8.00
2023-03-10T01:23:55.407Z,8.00
2023-03-10T01:26:22.453Z,8.00
2023-03-10T01:28:50.285Z,8.00
2023-03-10T01:31:20.540Z,8.10
2023-03-10T01:33:48.009Z,8.20
2023-03-10T01:36:20.626Z,8.20
2023-03-10T01:38:48.305Z,8.20
2023-03-10T01:41:16.896Z,8.20
2023-03-10T01:43:50.312Z,8.20
2023-03-10T01:46:46.829Z,8.20
2023-03-10T01:49:28.031Z,8.30
2023-03-10T01:52:03.698Z,8.20
2023-03-10T01:54:38.655Z,8.20
2023-03-10T01:57:05.944Z,8.10
2023-03-10T01:59:34.488Z,8.10
2023-03-10T02:02:02.514Z,8.10
2023-03-10T02:04:42.836Z,8.10
2023-03-10T02:07:11.831Z,8.10
2023-03-10T02:09:43.651Z,8.10
2023-03-10T02:12:12.652Z,8.10
2023-03-10T02:14:45.185Z,8.10
2023-03-10T02:17:14.857Z,8.10
2023-03-10T02:20:10.996Z,8.10
2023-03-10T02:22:39.798Z,8.10
2023-03-10T02:25:28.771Z,8.10
2023-03-10T02:27:58.504Z,8.10
2023-03-10T02:30:34.502Z,8.10
2023-03-10T02:33:32.550Z,8.20
2023-03-10T02:36:26.522Z,8.20
2023-03-10T02:38:56.091Z,8.20
2023-03-10T02:41:35.005Z,8.20
2023-03-10T02:44:06.165Z,8.20
2023-03-10T02:46:36.493Z,8.10
2023-03-10T02:49:05.417Z,8.10
2023-03-10T02:51:44.763Z,8.10
2023-03-10T02:54:12.448Z,8.00
2023-03-10T02:56:42.286Z,8.00
2023-03-10T02:59:10.279Z,8.00
2023-03-10T03:01:37.857Z,8.00
2023-03-10T03:04:07.341Z,8.00
2023-03-10T03:06:34.738Z,8.00
2023-03-10T03:09:02.087Z,8.10
2023-03-10T03:11:31.792Z,8.00
2023-03-10T03:14:01.320Z,8.10
2023-03-10T03:16:28.718Z,8.00
2023-03-10T03:18:58.000Z,8.00
2023-03-10T03:21:25.348Z,8.00
2023-03-10T03:23:52.387Z,8.00
2023-03-10T03:26:24.866Z,8.00
2023-03-10T03:28:51.879Z,8.00
2023-03-10T03:31:25.713Z,8.00
2023-03-10T03:33:52.785Z,8.00
2023-03-10T03:36:20.179Z,8.10
2023-03-10T03:38:47.198Z,8.10
2023-03-10T03:41:14.601Z,8.00
2023-03-10T03:43:43.882Z,8.10
2023-03-10T03:46:11.317Z,8.10
2023-03-10T03:48:38.458Z,8.10
2023-03-10T03:51:06.016Z,8.10
2023-03-10T03:53:37.705Z,8.10
2023-03-10T03:56:07.795Z,8.10
2023-03-10T03:58:37.187Z,8.10
2023-03-10T04:03:40.101Z,8.20
2023-03-10T04:06:09.945Z,8.20
2023-03-10T04:08:37.080Z,8.30
2023-03-10T04:11:04.614Z,8.30
2023-03-10T04:13:31.693Z,8.30
2023-03-10T04:15:59.666Z,8.30
2023-03-10T04:18:27.363Z,8.30
2023-03-10T04:20:54.732Z,8.30
2023-03-10T04:23:21.829Z,8.40
2023-03-10T04:25:49.139Z,8.40
2023-03-10T04:28:16.216Z,8.40
2023-03-10T04:30:46.173Z,8.50
2023-03-10T04:33:13.369Z,8.50
2023-03-10T04:35:45.152Z,8.60
2023-03-10T04:38:14.818Z,8.60
2023-03-10T04:40:42.222Z,8.60
2023-03-10T04:43:09.249Z,8.70
2023-03-10T04:45:36.950Z,8.70
2023-03-10T04:48:04.182Z,8.70
2023-03-10T04:50:31.539Z,8.70
2023-03-10T04:53:01.053Z,8.80
2023-03-10T04:55:28.433Z,8.70
2023-03-10T04:57:55.673Z,8.70
2023-03-10T05:00:23.208Z,8.70
2023-03-10T05:02:53.456Z,8.70
2023-03-10T05:05:20.875Z,8.60
2023-03-10T05:07:50.415Z,8.60
2023-03-10T05:10:17.924Z,8.60
2023-03-10T05:12:45.072Z,8.60
2023-03-10T05:15:12.693Z,8.60
2023-03-10T05:17:39.690Z,8.60
2023-03-10T05:20:07.703Z,8.60
2023-03-10T05:22:34.908Z,8.60
2023-03-10T05:25:02.406Z,8.60
2023-03-10T05:27:29.429Z,8.60
2023-03-10T05:30:01.842Z,8.60
2023-03-10T05:32:33.700Z,8.70
2023-03-10T05:35:01.293Z,8.70
2023-03-10T05:37:28.445Z,8.70
2023-03-10T05:39:56.046Z,8.70
2023-03-10T05:42:23.076Z,8.70
2023-03-10T05:44:50.403Z,8.80
2023-03-10T05:47:17.450Z,8.80
2023-03-10T05:49:45.210Z,8.80
2023-03-10T05:52:12.300Z,8.80
2023-03-10T05:54:39.686Z,8.80
2023-03-10T05:57:06.745Z,8.90
2023-03-10T05:59:34.121Z,9.00
2023-03-10T06:02:01.160Z,9.00
2023-03-10T06:04:30.901Z,9.10
2023-03-10T06:07:01.334Z,9.30
2023-03-10T06:09:32.416Z,9.40
2023-03-10T06:12:02.475Z,9.50
2023-03-10T06:14:29.834Z,9.60
2023-03-10T06:16:59.505Z,9.70
2023-03-10T06:19:29.440Z,9.80
2023-03-10T06:21:58.739Z,9.90
2023-03-10T06:24:28.428Z,9.90
2023-03-10T06:26:58.012Z,10.00
2023-03-10T06:29:25.560Z,10.00
2023-03-10T06:31:58.428Z,10.00
2023-03-10T06:34:26.256Z,10.00
2023-03-10T06:36:57.770Z,10.00
2023-03-10T06:39:27.697Z,9.90
2023-03-10T06:41:57.232Z,9.90
2023-03-10T06:44:24.596Z,9.90
2023-03-10T06:46:51.635Z,10.00
2023-03-10T06:49:19.017Z,10.10
2023-03-10T06:51:46.068Z,10.10
2023-03-10T06:54:13.493Z,10.30
2023-03-10T06:56:42.787Z,10.30
2023-03-10T06:59:10.181Z,10.50
2023-03-10T07:01:37.263Z,10.80
2023-03-10T07:04:04.691Z,11.10
2023-03-10T07:06:31.819Z,11.30
2023-03-10T07:09:01.372Z,11.10
2023-03-10T07:11:28.498Z,11.00
2023-03-10T07:13:58.334Z,10.90
2023-03-10T07:16:27.765Z,10.80
2023-03-10T07:18:57.605Z,10.70
2023-03-10T07:21:26.867Z,10.60
2023-03-10T07:23:54.235Z,10.70
2023-03-10T07:26:21.714Z,10.70
2023-03-10T07:28:49.039Z,10.70
2023-03-10T07:31:16.923Z,10.80
2023-03-10T07:33:44.390Z,10.80
2023-03-10T07:36:14.171Z,10.90
2023-03-10T07:38:45.024Z,10.90
2023-03-10T07:41:17.077Z,10.90
2023-03-10T07:43:47.315Z,11.00
2023-03-10T07:46:15.811Z,11.00
2023-03-10T07:48:43.591Z,11.00
2023-03-10T07:51:11.087Z,11.10
2023-03-10T07:53:38.584Z,11.10
2023-03-10T07:56:07.651Z,11.20
2023-03-10T07:58:35.705Z,11.20
2023-03-10T08:01:04.114Z,11.30
2023-03-10T08:03:33.993Z,11.40
2023-03-10T08:06:01.778Z,11.40
2023-03-10T08:08:29.226Z,11.50
2023-03-10T08:11:08.165Z,11.70
2023-03-10T08:13:39.119Z,11.90
2023-03-10T08:16:07.363Z,12.10
2023-03-10T08:18:39.252Z,12.90
2023-03-10T08:21:07.111Z,14.40
2023-03-10T08:23:38.272Z,16.10
2023-03-10T08:26:08.277Z,17.40
2023-03-10T08:28:40.200Z,18.20
2023-03-10T08:31:15.993Z,18.60
2023-03-10T08:33:46.516Z,19.10
2023-03-10T08:36:22.319Z,20.20
2023-03-10T08:38:51.882Z,21.30
2023-03-10T08:41:27.733Z,22.50
2023-03-10T08:43:56.651Z,23.90
2023-03-10T08:46:25.631Z,24.60
2023-03-10T08:48:56.536Z,25.40
2023-03-10T08:51:27.018Z,26.50
2023-03-10T08:53:55.019Z,27.10
2023-03-10T08:56:23.514Z,27.80
2023-03-10T08:58:51.198Z,28.80
2023-03-10T09:01:18.257Z,29.80
2023-03-10T09:03:46.219Z,29.40
2023-03-10T09:06:14.218Z,29.40
2023-03-10T09:08:44.202Z,29.40
2023-03-10T09:11:17.422Z,29.60
2023-03-10T09:13:46.823Z,30.30
2023-03-10T09:16:14.790Z,30.50
2023-03-10T09:18:45.426Z,28.90
2023-03-10T09:21:15.501Z,26.70
2023-03-10T09:23:48.705Z,25.90
2023-03-10T09:26:15.723Z,24.00
2023-03-10T09:28:45.721Z,22.20
2023-03-10T09:31:21.966Z,21.30
2023-03-10T09:33:49.955Z,20.20
2023-03-10T09:36:17.588Z,19.80
2023-03-10T09:38:45.198Z,20.50
2023-03-10T09:42:00.680Z,20.90
2023-03-10T09:44:33.836Z,20.40
2023-03-10T09:47:10.479Z,20.30
2023-03-10T09:49:42.207Z,20.90
2023-03-10T09:52:20.325Z,21.20
2023-03-10T09:55:17.077Z,20.60
2023-03-10T09:57:56.541Z,20.00
2023-03-10T10:00:33.091Z,19.50
2023-03-10T10:03:21.623Z,20.90
2023-03-10T10:05:52.341Z,23.10
2023-03-10T10:08:29.102Z,23.50
2023-03-10T10:11:02.925Z,24.80
2023-03-10T10:13:30.534Z,26.70
2023-03-10T10:16:34.265Z,28.40
2023-03-10T10:19:30.987Z,29.80
2023-03-10T10:22:17.504Z,30.10
2023-03-10T10:25:08.851Z,30.00
2023-03-10T10:27:44.051Z,29.50
2023-03-10T10:30:29.213Z,28.20
2023-03-10T10:33:02.085Z,26.10
2023-03-10T10:35:38.324Z,25.20
2023-03-10T10:38:21.215Z,25.80
2023-03-10T10:41:02.658Z,27.30
2023-03-10T10:43:31.313Z,28.70
2023-03-10T10:46:06.064Z,29.70
2023-03-10T10:48:39.464Z,30.20
2023-03-10T10:51:23.432Z,30.70
2023-03-10T10:53:53.965Z,31.50
2023-03-10T10:56:21.786Z,32.00
2023-03-10T10:59:18.011Z,32.10
2023-03-10T11:01:49.887Z,31.20
2023-03-10T11:04:17.821Z,29.20
2023-03-10T11:06:44.942Z,28.10
2023-03-10T11:09:16.801Z,27.50
2023-03-10T11:12:04.640Z,26.70
2023-03-10T11:14:31.925Z,25.40
2023-03-10T11:17:07.659Z,24.40
2023-03-10T11:20:00.663Z,23.50
2023-03-10T11:22:55.002Z,22.90
2023-03-10T11:25:28.895Z,23.40
2023-03-10T11:28:24.263Z,24.20
2023-03-10T11:31:10.403Z,24.50
2023-03-10T11:33:50.415Z,25.20
2023-03-10T11:36:17.777Z,25.20
2023-03-10T11:38:52.576Z,24.70
2023-03-10T11:41:29.278Z,24.40
2023-03-10T11:44:08.591Z,23.80
2023-03-10T11:47:06.356Z,22.50
2023-03-10T11:49:40.821Z,21.40
2023-03-10T11:52:27.971Z,20.50
2023-03-10T11:55:03.622Z,19.70
2023-03-10T11:57:37.006Z,18.80
2023-03-10T12:00:18.332Z,18.20
2023-03-10T12:03:15.045Z,17.80
2023-03-10T12:05:58.478Z,17.50
2023-03-10T12:08:32.216Z,17.50
2023-03-10T12:11:00.652Z,17.70
2023-03-10T12:13:35.974Z,17.70
2023-03-10T12:16:04.011Z,17.70
2023-03-10T12:18:36.246Z,17.70
2023-03-10T12:21:14.340Z,17.60
2023-03-10T12:23:47.388Z,17.20
2023-03-10T12:26:34.660Z,16.90
2023-03-10T12:29:32.515Z,16.70
2023-03-10T12:31:59.932Z,16.30
2023-03-10T12:34:29.701Z,15.90
2023-03-10T12:37:07.942Z,15.60
2023-03-10T12:39:40.722Z,15.00
2023-03-10T12:42:46.440Z,15.00
2023-03-10T12:45:16.722Z,15.00
2023-03-10T12:47:46.674Z,15.20
2023-03-10T12:50:26.258Z,15.30
2023-03-10T12:53:22.591Z,15.50
2023-03-10T12:56:15.342Z,15.60
2023-03-10T12:59:03.259Z,15.70
2023-03-10T13:01:55.535Z,15.50
2023-03-10T13:04:34.585Z,15.50
2023-03-10T13:07:04.623Z,15.40
2023-03-10T13:09:40.496Z,15.40
2023-03-10T13:12:36.808Z,15.40
2023-03-10T13:15:06.910Z,15.40
2023-03-10T13:17:34.337Z,15.30
2023-03-10T13:20:24.971Z,15.30
2023-03-10T13:22:56.574Z,15.60
2023-03-10T13:25:24.561Z,15.90
2023-03-10T13:27:54.620Z,16.10
2023-03-10T13:30:26.916Z,16.20
2023-03-10T13:33:04.620Z,16.30
2023-03-10T13:35:34.191Z,16.20
2023-03-10T13:38:14.956Z,16.00
2023-03-10T13:40:50.267Z,15.90
2023-03-10T13:43:31.567Z,15.90
2023-03-10T13:46:00.350Z,15.80
2023-03-10T13:48:39.288Z,15.30
2023-03-10T13:51:30.728Z,15.10
2023-03-10T13:54:22.506Z,14.80
2023-03-10T13:57:11.676Z,14.50
2023-03-10T13:59:43.634Z,14.30
2023-03-10T14:02:23.752Z,14.20
2023-03-10T14:04:53.769Z,14.20
2023-03-10T14:07:22.051Z,14.20
2023-03-10T14:10:04.864Z,14.40
2023-03-10T14:12:40.815Z,14.70
2023-03-10T14:15:15.057Z,14.80
2023-03-10T14:17:43.908Z,14.80
2023-03-10T14:20:13.143Z,14.90
2023-03-10T14:22:41.540Z,15.00
2023-03-10T14:25:17.415Z,14.90
2023-03-10T14:27:53.785Z,14.90
2023-03-10T14:30:25.532Z,14.90
2023-03-10T14:32:56.132Z,14.80
2023-03-10T14:35:27.075Z,14.70
2023-03-10T14:37:55.037Z,14.60
2023-03-10T14:40:26.125Z,14.70
2023-03-10T14:43:00.302Z,14.70
2023-03-10T14:45:35.228Z,14.70
2023-03-10T14:48:12.177Z,14.60
2023-03-10T14:50:41.852Z,14.40
2023-03-10T14:53:13.872Z,14.30
2023-03-10T14:55:43.455Z,14.20
2023-03-10T14:58:16.781Z,14.20
2023-03-10T15:00:44.483Z,14.10
2023-03-10T15:03:14.122Z,13.90
2023-03-10T15:05:48.700Z,13.80
2023-03-10T15:08:17.770Z,13.80
2023-03-10T15:10:48.807Z,13.80
2023-03-10T15:13:20.925Z,13.80
2023-03-10T15:15:51.630Z,13.70
2023-03-10T15:18:21.874Z,13.60
2023-03-10T15:20:50.050Z,13.50
2023-03-10T15:23:19.234Z,13.30
2023-03-10T15:25:48.020Z,13.30
2023-03-10T15:28:17.797Z,13.20
2023-03-10T15:30:56.707Z,13.20
2023-03-10T15:33:24.536Z,13.20
2023-03-10T15:35:51.674Z,13.20
2023-03-10T15:38:19.234Z,13.20
2023-03-10T15:40:48.693Z,13.10
2023-03-10T15:43:16.175Z,12.90
2023-03-10T15:45:46.066Z,12.80
2023-03-10T15:48:16.372Z,12.80
2023-03-10T15:50:46.445Z,12.70
2023-03-10T15:53:14.491Z,12.70
2023-03-10T15:55:42.449Z,12.70
2023-03-10T15:58:11.101Z,12.70
2023-03-10T16:00:38.577Z,12.70
2023-03-10T16:03:06.048Z,12.70
2023-03-10T16:05:34.494Z,12.80
2023-03-10T16:08:04.527Z,12.80
2023-03-10T16:10:34.139Z,12.80
2023-03-10T16:13:04.567Z,12.80
2023-03-10T16:15:31.816Z,12.70
2023-03-10T16:17:59.272Z,12.50
2023-03-10T16:20:29.008Z,12.40
2023-03-10T16:22:56.564Z,12.30
2023-03-10T16:25:23.761Z,12.20
2023-03-10T16:27:51.130Z,12.20
2023-03-10T16:30:19.136Z,12.20
2023-03-10T16:32:50.426Z,12.20
2023-03-10T16:35:18.474Z,12.00
2023-03-10T16:37:57.252Z,12.00
2023-03-10T16:40:33.800Z,11.90
2023-03-10T16:43:01.289Z,11.90
2023-03-10T16:45:30.881Z,11.60
2023-03-10T16:47:58.269Z,11.40
2023-03-10T16:50:32.601Z,11.20
2023-03-10T16:53:02.379Z,11.00
2023-03-10T16:55:29.577Z,10.80
2023-03-10T16:57:57.101Z,10.70
2023-03-10T17:00:28.768Z,10.60
2023-03-10T17:03:03.253Z,10.40
2023-03-10T17:05:30.551Z,10.30
2023-03-10T17:08:00.442Z,10.10
2023-03-10T17:10:27.529Z,10.00
2023-03-10T17:12:55.070Z,10.00
2023-03-10T17:15:24.777Z,9.90
2023-03-10T17:17:52.147Z,9.80
2023-03-10T17:20:26.307Z,9.70
2023-03-10T17:22:53.794Z,9.70
2023-03-10T17:25:21.177Z,9.60
2023-03-10T17:27:51.110Z,9.50
2023-03-10T17:30:18.688Z,9.50
2023-03-10T17:32:48.671Z,9.40
2023-03-10T17:35:15.815Z,9.40
2023-03-10T17:37:43.284Z,9.40
2023-03-10T17:40:13.741Z,9.40
2023-03-10T17:42:41.951Z,9.40
2023-03-10T17:45:09.711Z,9.30
2023-03-10T17:47:37.161Z,9.30
2023-03-10T17:50:04.534Z,9.30
2023-03-10T17:52:32.044Z,9.20
2023-03-10T17:54:59.145Z,9.20
2023-03-10T17:57:28.750Z,9.20
2023-03-10T17:59:58.073Z,9.20
2023-03-10T18:02:25.514Z,9.10
2023-03-10T18:04:55.225Z,9.10
2023-03-10T18:07:22.573Z,9.10
2023-03-10T18:09:49.628Z,9.10
2023-03-10T18:12:19.532Z,9.00
2023-03-10T18:14:49.048Z,9.00
2023-03-10T18:17:16.509Z,9.10
2023-03-10T18:19:52.664Z,9.00
2023-03-10T18:22:20.075Z,9.00
2023-03-10T18:24:47.234Z,9.10
2023-03-10T18:27:14.681Z,9.10
2023-03-10T18:29:44.956Z,9.10
2023-03-10T18:32:12.543Z,9.10
2023-03-10T18:34:44.371Z,9.10
2023-03-10T18:37:22.242Z,9.10
2023-03-10T18:39:54.327Z,9.10
2023-03-10T18:42:21.710Z,9.10
2023-03-10T18:44:51.866Z,9.10
2023-03-10T18:47:19.976Z,9.00
2023-03-10T18:49:47.879Z,9.00
2023-03-10T18:52:15.652Z,8.90
2023-03-10T18:54:47.203Z,8.90
2023-03-10T18:57:19.246Z,8.90
2023-03-10T18:59:46.404Z,8.90
2023-03-10T19:02:16.392Z,8.80
2023-03-10T19:04:43.978Z,8.80
2023-03-10T19:07:11.519Z,8.70
2023-03-10T19:09:38.552Z,8.70
2023-03-10T19:12:06.850Z,8.70
2023-03-10T19:14:45.060Z,8.70
2023-03-10T19:17:22.801Z,8.70
2023-03-10T19:20:00.471Z,8.70
2023-03-10T19:22:28.308Z,8.60
2023-03-10T19:24:56.411Z,8.60
2023-03-10T19:27:31.597Z,8.60
2023-03-10T19:30:01.188Z,8.50
2023-03-10T19:32:30.841Z,8.50
2023-03-10T19:35:00.339Z,8.50
2023-03-10T19:37:28.630Z,8.50
2023-03-10T19:39:55.689Z,8.50
2023-03-10T19:42:25.416Z,8.50
2023-03-10T19:44:55.104Z,8.40
2023-03-10T19:47:22.461Z,8.40
2023-03-10T19:49:53.750Z,8.40
2023-03-10T19:52:24.260Z,8.40
2023-03-10T19:54:51.861Z,8.50
2023-03-10T19:57:19.473Z,8.50
2023-03-10T19:59:49.193Z,8.50
2023-03-10T20:02:19.389Z,8.50
2023-03-10T20:04:46.672Z,8.50
2023-03-10T20:07:16.584Z,8.50
2023-03-10T20:09:45.715Z,8.60
2023-03-10T20:12:18.799Z,8.50
2023-03-10T20:14:55.705Z,8.60
2023-03-10T20:17:23.023Z,8.60
2023-03-10T20:19:55.724Z,8.60
2023-03-10T20:22:36.029Z,8.70
2023-03-10T20:25:03.203Z,8.70
2023-03-10T20:27:30.598Z,8.70
2023-03-10T20:29:59.882Z,8.80
2023-03-10T20:32:27.340Z,8.80
2023-03-10T20:34:54.449Z,8.80
2023-03-10T20:37:24.190Z,8.80
2023-03-10T20:39:53.715Z,8.80
2023-03-10T20:42:23.527Z,8.80
2023-03-10T20:44:52.754Z,8.80
2023-03-10T20:47:20.132Z,8.80
2023-03-10T20:49:49.389Z,8.80
2023-03-10T20:52:16.732Z,8.90
2023-03-10T20:54:43.772Z,8.80
2023-03-10T20:57:13.701Z,8.90
2023-03-10T20:59:45.860Z,9.00
2023-03-10T21:02:17.585Z,9.00
2023-03-10T21:04:47.552Z,8.90
2023-03-10T21:10:09.225Z,9.00
2023-03-10T21:12:36.579Z,9.00
2023-03-10T21:15:07.029Z,9.00
2023-03-10T21:17:36.406Z,8.90
2023-03-10T21:20:05.346Z,8.90
2023-03-10T21:22:38.446Z,8.80
2023-03-10T21:25:11.854Z,8.80
2023-03-10T21:27:46.669Z,8.90
2023-03-10T21:30:14.359Z,8.90
2023-03-10T21:32:41.728Z,8.80
2023-03-10T21:35:09.577Z,8.80
2023-03-10T21:37:39.141Z,8.80
2023-03-10T21:40:15.204Z,8.70
2023-03-10T21:42:47.311Z,8.80
2023-03-10T21:45:20.124Z,8.80
2023-03-10T21:47:48.731Z,8.80
2023-03-10T21:50:17.597Z,8.70
2023-03-10T21:52:51.072Z,8.70
2023-03-10T21:55:23.439Z,8.70
2023-03-10T21:57:51.920Z,8.70
2023-03-10T22:00:20.616Z,8.70
2023-03-10T22:02:50.817Z,8.60
2023-03-10T22:05:21.020Z,8.60
2023-03-10T22:07:48.984Z,8.60
2023-03-10T22:10:16.772Z,8.60
2023-03-10T22:12:44.208Z,8.60
2023-03-10T22:15:16.057Z,8.60
2023-03-10T22:17:46.037Z,8.60
2023-03-10T22:20:17.121Z,8.60
2023-03-10T22:22:44.953Z,8.60
2023-03-10T22:25:12.254Z,8.60
2023-03-10T22:27:39.618Z,8.60
2023-03-10T22:30:10.338Z,8.60
2023-03-10T22:32:37.728Z,8.60
2023-03-10T22:35:05.203Z,8.60
2023-03-10T22:37:32.631Z,8.50
2023-03-10T22:39:59.799Z,8.50
2023-03-10T22:42:27.192Z,8.50
2023-03-10T22:44:56.494Z,8.40
2023-03-10T22:47:23.884Z,8.40
2023-03-10T22:49:51.804Z,8.40
2023-03-10T22:52:19.177Z,8.40
2023-03-10T22:54:48.737Z,8.30
2023-03-10T22:57:16.139Z,8.30
2023-03-10T22:59:43.152Z,8.20
2023-03-10T23:02:12.809Z,8.20
2023-03-10T23:04:40.003Z,8.20
2023-03-10T23:07:07.366Z,8.10
2023-03-10T23:09:34.398Z,8.10
2023-03-10T23:12:01.910Z,8.00
2023-03-10T23:14:31.500Z,8.00
2023-03-10T23:16:58.853Z,7.90
2023-03-10T23:19:25.928Z,7.90
2023-03-10T23:21:53.291Z,7.90
2023-03-10T23:24:22.831Z,8.20
2023-03-10T23:26:50.428Z,8.30
2023-03-10T23:29:17.462Z,8.50
2023-03-10T23:31:44.849Z,8.40
2023-03-10T23:34:11.992Z,8.30
2023-03-10T23:36:41.525Z,8.20
2023-03-10T23:39:08.553Z,8.00
2023-03-10T23:41:38.328Z,7.90
2023-03-10T23:44:05.528Z,7.80
2023-03-10T23:46:32.926Z,7.80
2023-03-10T23:49:00.051Z,7.70
2023-03-10T23:51:27.712Z,7.60
2023-03-10T23:53:56.991Z,7.60
2023-03-10T23:56:24.376Z,7.60
2023-03-10T23:58:51.525Z,7.60
